createdAt,value
2023-02-27T00:01:19.329Z,73.22
2023-02-27T00:04:08.332Z,73.37
2023-02-27T00:06:57.396Z,73.40
2023-02-27T00:09:46.451Z,73.49
2023-02-27T00:12:39.039Z,73.45
2023-02-27T00:15:31.060Z,73.45
2023-02-27T00:18:19.972Z,73.58
2023-02-27T00:21:08.943Z,73.55
2023-02-27T00:23:58.020Z,73.67
2023-02-27T00:26:47.131Z,73.62
2023-02-27T00:29:36.018Z,73.75
2023-02-27T00:32:25.056Z,73.74
2023-02-27T00:35:13.985Z,73.79
2023-02-27T00:38:02.917Z,73.83
2023-02-27T00:40:52.957Z,73.96
2023-02-27T00:43:41.621Z,74.03
2023-02-27T00:46:30.566Z,74.16
2023-02-27T00:49:20.044Z,74.24
2023-02-27T00:52:09.817Z,74.19
2023-02-27T00:54:58.835Z,74.25
2023-02-27T00:57:47.956Z,74.40
2023-02-27T01:00:37.133Z,74.45
2023-02-27T01:03:26.326Z,74.38
2023-02-27T01:06:16.122Z,74.59
2023-02-27T01:09:04.964Z,74.57
2023-02-27T01:11:53.923Z,74.67
2023-02-27T01:14:44.567Z,74.62
2023-02-27T01:17:33.504Z,74.70
2023-02-27T01:20:22.509Z,74.62
2023-02-27T01:23:11.634Z,74.74
2023-02-27T01:26:00.534Z,74.70
2023-02-27T01:28:49.374Z,74.73
2023-02-27T01:31:38.328Z,74.73
2023-02-27T01:34:27.475Z,74.71
2023-02-27T01:37:18.355Z,74.85
2023-02-27T01:40:08.572Z,74.96
2023-02-27T01:42:57.399Z,74.93
2023-02-27T01:45:49.000Z,75.04
2023-02-27T01:48:39.641Z,75.02
2023-02-27T01:51:33.232Z,75.16
2023-02-27T01:54:26.306Z,75.22
2023-02-27T01:57:15.959Z,75.28
2023-02-27T02:00:06.265Z,75.26
2023-02-27T02:04:09.232Z,75.38
2023-02-27T02:07:06.325Z,75.36
2023-02-27T02:09:59.548Z,75.39
2023-02-27T02:12:52.463Z,75.35
2023-02-27T02:15:50.885Z,75.63
2023-02-27T02:19:13.406Z,75.56
2023-02-27T02:22:38.783Z,75.52
2023-02-27T02:25:49.958Z,75.42
2023-02-27T02:29:14.424Z,75.41
2023-02-27T02:32:34.427Z,75.56
2023-02-27T02:35:49.264Z,75.59
2023-02-27T02:39:05.552Z,75.56
2023-02-27T02:42:03.309Z,75.63
2023-02-27T02:45:23.287Z,75.65
2023-02-27T02:48:30.650Z,75.78
2023-02-27T02:51:31.041Z,75.78
2023-02-27T02:54:43.545Z,75.87
2023-02-27T02:57:38.032Z,75.78
2023-02-27T03:00:41.479Z,75.73
2023-02-27T03:03:39.317Z,75.86
2023-02-27T03:06:33.252Z,75.92
2023-02-27T03:09:34.929Z,76.11
2023-02-27T03:12:26.103Z,76.23
2023-02-27T03:15:30.677Z,76.32
2023-02-27T03:18:29.714Z,76.38
2023-02-27T03:21:31.318Z,76.45
2023-02-27T03:24:26.444Z,76.42
2023-02-27T03:27:19.185Z,76.30
2023-02-27T03:30:15.997Z,76.55
2023-02-27T03:33:12.107Z,76.56
2023-02-27T03:36:16.383Z,76.47
2023-02-27T03:39:22.324Z,76.62
2023-02-27T03:42:31.855Z,76.64
2023-02-27T03:45:53.071Z,76.81
2023-02-27T03:48:44.723Z,77.01
2023-02-27T03:51:35.043Z,77.01
2023-02-27T03:54:31.618Z,77.23
2023-02-27T03:57:20.572Z,77.17
2023-02-27T04:00:13.765Z,77.14
2023-02-27T04:03:04.650Z,77.15
2023-02-27T04:05:53.850Z,77.19
2023-02-27T04:08:55.087Z,77.16
2023-02-27T04:11:59.198Z,77.39
2023-02-27T04:15:00.132Z,77.56
2023-02-27T04:18:19.917Z,77.55
2023-02-27T04:21:19.815Z,77.70
2023-02-27T04:24:14.058Z,77.89
2023-02-27T04:27:13.428Z,77.92
2023-02-27T04:30:07.970Z,78.14
2023-02-27T04:33:07.604Z,78.20
2023-02-27T04:36:06.342Z,78.37
2023-02-27T04:39:01.276Z,78.53
2023-02-27T04:42:13.065Z,78.64
2023-02-27T04:45:06.508Z,78.78
2023-02-27T04:48:26.508Z,78.92
2023-02-27T04:51:27.396Z,79.07
2023-02-27T04:54:22.758Z,79.19
2023-02-27T04:57:17.355Z,79.21
2023-02-27T05:00:09.989Z,79.33
2023-02-27T05:03:10.245Z,79.48
2023-02-27T05:06:01.594Z,79.68
2023-02-27T05:09:04.184Z,79.85
2023-02-27T05:12:28.963Z,79.88
2023-02-27T05:15:36.146Z,80.24
2023-02-27T05:18:25.788Z,80.12
2023-02-27T05:21:31.184Z,80.42
2023-02-27T05:25:04.642Z,80.43
2023-02-27T05:28:08.495Z,80.58
2023-02-27T05:31:10.055Z,80.67
2023-02-27T05:34:13.356Z,80.77
2023-02-27T05:37:15.121Z,80.83
2023-02-27T05:40:08.652Z,80.92
2023-02-27T05:43:06.590Z,80.90
2023-02-27T05:46:10.236Z,80.96
2023-02-27T05:49:02.957Z,81.08
2023-02-27T05:51:57.191Z,81.08
2023-02-27T05:54:56.988Z,81.18
2023-02-27T05:57:51.949Z,81.28
2023-02-27T06:00:51.982Z,81.27
2023-02-27T06:03:41.890Z,81.31
2023-02-27T06:06:31.322Z,81.26
2023-02-27T06:09:20.850Z,81.40
2023-02-27T06:12:10.064Z,81.39
2023-02-27T06:14:59.135Z,81.42
2023-02-27T06:17:47.777Z,81.51
2023-02-27T06:20:36.855Z,81.48
2023-02-27T06:23:25.380Z,81.52
2023-02-27T06:26:14.659Z,81.51
2023-02-27T06:29:03.553Z,81.60
2023-02-27T06:31:52.441Z,81.54
2023-02-27T06:34:41.011Z,81.57
2023-02-27T06:37:30.207Z,81.73
2023-02-27T06:40:19.262Z,81.69
2023-02-27T06:43:07.988Z,81.80
2023-02-27T06:45:56.646Z,81.79
2023-02-27T06:48:45.978Z,81.69
2023-02-27T06:51:34.863Z,81.72
2023-02-27T06:54:23.825Z,81.84
2023-02-27T06:57:12.452Z,81.95
2023-02-27T07:00:01.530Z,81.93
2023-02-27T07:02:50.209Z,81.89
2023-02-27T07:05:41.826Z,81.98
2023-02-27T07:08:30.510Z,81.93
2023-02-27T07:11:19.902Z,82.08
2023-02-27T07:14:08.745Z,82.03
2023-02-27T07:16:58.054Z,81.85
2023-02-27T07:19:46.679Z,81.71
2023-02-27T07:22:36.066Z,81.76
2023-02-27T07:25:24.697Z,81.43
2023-02-27T07:28:14.754Z,81.61
2023-02-27T07:31:03.599Z,81.52
2023-02-27T07:33:52.823Z,81.37
2023-02-27T07:36:41.884Z,81.38
2023-02-27T07:39:31.296Z,81.25
2023-02-27T07:42:19.899Z,80.98
2023-02-27T07:45:10.052Z,80.87
2023-02-27T07:47:58.809Z,80.64
2023-02-27T07:50:47.761Z,80.67
2023-02-27T07:53:36.544Z,80.62
2023-02-27T07:56:27.012Z,80.25
2023-02-27T07:59:15.795Z,80.05
2023-02-27T08:02:04.903Z,79.90
2023-02-27T08:04:54.004Z,79.72
2023-02-27T08:07:43.450Z,79.03
2023-02-27T08:10:32.188Z,79.01
2023-02-27T08:13:42.218Z,78.98
2023-02-27T08:16:32.112Z,78.50
2023-02-27T08:19:21.304Z,77.98
2023-02-27T08:22:09.926Z,77.57
2023-02-27T08:24:58.895Z,76.27
2023-02-27T08:27:47.561Z,75.80
2023-02-27T08:30:37.053Z,75.89
2023-02-27T08:33:26.011Z,76.10
2023-02-27T08:36:15.342Z,75.04
2023-02-27T08:39:04.381Z,75.05
2023-02-27T08:41:53.435Z,74.96
2023-02-27T08:44:56.527Z,74.52
2023-02-27T08:48:20.593Z,74.07
2023-02-27T08:51:22.066Z,73.15
2023-02-27T08:54:13.210Z,72.97
2023-02-27T08:57:23.516Z,71.29
2023-02-27T09:00:45.637Z,70.94
2023-02-27T09:03:47.241Z,71.93
2023-02-27T09:06:36.662Z,72.09
2023-02-27T09:09:25.338Z,72.02
2023-02-27T09:12:14.291Z,71.96
2023-02-27T09:15:05.916Z,72.44
2023-02-27T09:17:56.755Z,72.24
2023-02-27T09:20:46.030Z,72.23
2023-02-27T09:23:35.070Z,72.25
2023-02-27T09:26:39.703Z,72.34
2023-02-27T09:29:31.514Z,72.38
2023-02-27T09:32:20.280Z,72.34
2023-02-27T09:35:09.634Z,72.30
2023-02-27T09:38:01.343Z,71.84
2023-02-27T09:40:52.821Z,72.47
2023-02-27T09:43:47.759Z,72.91
2023-02-27T09:46:37.544Z,72.86
2023-02-27T09:49:32.253Z,72.65
2023-02-27T09:52:21.435Z,72.48
2023-02-27T09:55:19.986Z,71.17
2023-02-27T09:58:31.689Z,70.94
2023-02-27T10:01:20.428Z,68.70
2023-02-27T10:04:33.371Z,68.90
2023-02-27T10:07:38.776Z,68.66
2023-02-27T10:10:48.694Z,68.13
2023-02-27T10:13:49.414Z,68.34
2023-02-27T10:16:39.734Z,68.01
2023-02-27T10:19:35.841Z,67.69
2023-02-27T10:22:38.757Z,66.55
2023-02-27T10:25:32.039Z,65.70
2023-02-27T10:28:22.729Z,66.22
2023-02-27T10:31:18.183Z,66.62
2023-02-27T10:34:13.457Z,66.85
2023-02-27T10:37:06.470Z,66.63
2023-02-27T10:39:58.956Z,66.72
2023-02-27T10:42:48.184Z,65.68
2023-02-27T10:45:38.938Z,65.92
2023-02-27T10:48:27.761Z,64.95
2023-02-27T10:51:38.324Z,65.83
2023-02-27T10:54:27.162Z,64.96
2023-02-27T10:57:36.887Z,64.65
2023-02-27T11:00:53.551Z,64.72
2023-02-27T11:03:44.703Z,64.44
2023-02-27T11:06:34.321Z,64.22
2023-02-27T11:09:29.877Z,64.40
2023-02-27T11:12:30.849Z,64.41
2023-02-27T11:15:28.281Z,63.62
2023-02-27T11:18:29.456Z,63.00
2023-02-27T11:21:28.079Z,62.83
2023-02-27T11:24:20.229Z,63.00
2023-02-27T11:27:30.247Z,62.74
2023-02-27T11:30:28.872Z,62.33
2023-02-27T11:33:20.338Z,62.94
2023-02-27T11:36:10.020Z,62.65
2023-02-27T11:39:02.158Z,62.12
2023-02-27T11:41:52.342Z,62.47
2023-02-27T11:44:51.618Z,62.45
2023-02-27T11:47:41.386Z,62.37
2023-02-27T11:50:49.074Z,61.46
2023-02-27T11:54:03.067Z,61.82
2023-02-27T11:57:15.998Z,62.70
2023-02-27T12:00:18.270Z,62.59
2023-02-27T12:03:18.443Z,63.07
2023-02-27T12:06:26.185Z,63.86
2023-02-27T12:09:51.551Z,62.76
2023-02-27T12:12:48.342Z,61.21
2023-02-27T12:15:56.064Z,60.90
2023-02-27T12:19:12.742Z,60.08
2023-02-27T12:22:20.657Z,60.68
2023-02-27T12:25:21.010Z,61.43
2023-02-27T12:28:33.471Z,61.33
2023-02-27T12:31:37.841Z,61.15
2023-02-27T12:34:38.781Z,61.24
2023-02-27T12:37:30.523Z,61.30
2023-02-27T12:40:24.443Z,61.68
2023-02-27T12:43:38.477Z,60.60
2023-02-27T12:46:52.511Z,61.06
2023-02-27T12:49:59.518Z,61.39
2023-02-27T12:53:07.806Z,61.27
2023-02-27T12:56:02.833Z,61.14
2023-02-27T12:59:08.113Z,61.35
2023-02-27T13:02:20.597Z,60.70
2023-02-27T13:05:47.327Z,60.30
2023-02-27T13:08:54.432Z,60.44
2023-02-27T13:12:08.013Z,60.19
2023-02-27T13:15:04.701Z,60.19
2023-02-27T13:18:06.055Z,61.18
2023-02-27T13:21:24.324Z,61.04
2023-02-27T13:24:24.347Z,60.69
2023-02-27T13:27:39.502Z,60.76
2023-02-27T13:30:36.112Z,60.72
2023-02-27T13:33:37.983Z,60.83
2023-02-27T13:36:41.195Z,60.99
2023-02-27T13:39:46.413Z,60.78
2023-02-27T13:42:35.999Z,60.42
2023-02-27T13:45:54.175Z,60.62
2023-02-27T13:48:46.484Z,60.38
2023-02-27T13:51:35.361Z,60.48
2023-02-27T13:54:31.620Z,60.07
2023-02-27T13:57:47.191Z,59.56
2023-02-27T14:00:38.146Z,60.37
2023-02-27T14:03:30.502Z,60.48
2023-02-27T14:06:20.082Z,60.64
2023-02-27T14:09:15.038Z,60.16
2023-02-27T14:12:07.261Z,59.88
2023-02-27T14:14:56.564Z,59.91
2023-02-27T14:17:48.693Z,60.33
2023-02-27T14:20:41.332Z,60.21
2023-02-27T14:23:30.720Z,60.53
2023-02-27T14:26:24.394Z,60.17
2023-02-27T14:29:18.792Z,60.05
2023-02-27T14:32:08.541Z,60.07
2023-02-27T14:34:57.466Z,60.36
2023-02-27T14:37:51.526Z,60.30
2023-02-27T14:41:00.659Z,60.26
2023-02-27T14:43:56.579Z,60.44
2023-02-27T14:46:45.789Z,60.92
2023-02-27T14:49:36.074Z,61.23
2023-02-27T14:52:24.825Z,61.33
2023-02-27T14:55:29.228Z,60.86
2023-02-27T14:58:22.757Z,60.79
2023-02-27T15:01:11.934Z,61.02
2023-02-27T15:04:01.288Z,61.28
2023-02-27T15:06:52.201Z,61.24
2023-02-27T15:09:44.899Z,61.56
2023-02-27T15:12:39.331Z,61.49
2023-02-27T15:15:28.626Z,60.97
2023-02-27T15:18:18.361Z,60.79
2023-02-27T15:21:15.101Z,61.02
2023-02-27T15:24:06.688Z,60.92
2023-02-27T15:26:57.138Z,60.60
2023-02-27T15:29:56.067Z,61.26
2023-02-27T15:32:44.809Z,61.75
2023-02-27T15:35:37.950Z,61.70
2023-02-27T15:38:35.482Z,61.85
2023-02-27T15:41:24.385Z,62.03
2023-02-27T15:44:14.918Z,62.35
2023-02-27T15:47:05.218Z,62.82
2023-02-27T15:50:09.390Z,62.89
2023-02-27T15:53:15.174Z,62.88
2023-02-27T15:56:09.633Z,62.80
2023-02-27T15:59:01.203Z,62.96
2023-02-27T16:01:50.087Z,63.05
2023-02-27T16:04:38.865Z,63.16
2023-02-27T16:07:29.619Z,63.19
2023-02-27T16:10:28.434Z,63.11
2023-02-27T16:13:35.059Z,63.40
2023-02-27T16:16:26.817Z,63.55
2023-02-27T16:19:34.211Z,63.68
2023-02-27T16:22:24.022Z,63.78
2023-02-27T16:25:19.440Z,63.87
2023-02-27T16:28:15.314Z,64.19
2023-02-27T16:31:05.744Z,64.34
2023-02-27T16:33:56.987Z,64.27
2023-02-27T16:36:55.232Z,64.52
2023-02-27T16:39:44.016Z,64.63
2023-02-27T16:42:33.588Z,64.83
2023-02-27T16:45:26.147Z,64.87
2023-02-27T16:48:14.916Z,65.07
2023-02-27T16:51:04.448Z,65.17
2023-02-27T16:53:55.039Z,65.28
2023-02-27T16:56:46.532Z,65.37
2023-02-27T16:59:40.116Z,65.52
2023-02-27T17:02:29.040Z,65.57
2023-02-27T17:05:18.994Z,65.52
2023-02-27T17:08:09.555Z,65.45
2023-02-27T17:11:01.658Z,65.61
2023-02-27T17:13:50.730Z,65.61
2023-02-27T17:16:39.683Z,65.58
2023-02-27T17:19:28.750Z,65.65
2023-02-27T17:22:17.629Z,65.66
2023-02-27T17:25:07.373Z,65.98
2023-02-27T17:27:56.097Z,66.11
2023-02-27T17:30:45.684Z,66.09
2023-02-27T17:33:34.844Z,65.67
2023-02-27T17:36:23.936Z,65.47
2023-02-27T17:39:14.375Z,65.35
2023-02-27T17:42:03.586Z,65.11
2023-02-27T17:44:52.510Z,64.52
2023-02-27T17:47:41.702Z,64.20
2023-02-27T17:50:32.191Z,64.26
2023-02-27T17:53:21.651Z,64.43
2023-02-27T17:56:12.048Z,64.78
2023-02-27T17:59:00.872Z,64.84
2023-02-27T18:01:49.621Z,65.03
2023-02-27T18:04:38.736Z,64.93
2023-02-27T18:07:27.722Z,64.35
2023-02-27T18:10:16.631Z,63.89
2023-02-27T18:13:05.595Z,63.93
2023-02-27T18:15:56.235Z,64.10
2023-02-27T18:18:45.134Z,64.22
2023-02-27T18:21:34.668Z,64.23
2023-02-27T18:24:23.447Z,64.36
2023-02-27T18:27:12.199Z,64.36
2023-02-27T18:30:01.135Z,64.25
2023-02-27T18:32:50.114Z,64.25
2023-02-27T18:35:38.839Z,64.15
2023-02-27T18:38:27.799Z,64.36
2023-02-27T18:41:17.875Z,64.39
2023-02-27T18:44:08.483Z,64.69
2023-02-27T18:46:57.348Z,64.75
2023-02-27T18:49:46.226Z,64.76
2023-02-27T18:52:37.187Z,64.64
2023-02-27T18:55:26.163Z,64.17
2023-02-27T18:58:15.230Z,64.54
2023-02-27T19:01:04.729Z,64.41
2023-02-27T19:03:59.341Z,64.41
2023-02-27T19:06:48.240Z,64.89
2023-02-27T19:09:37.086Z,65.17
2023-02-27T19:12:26.658Z,65.27
2023-02-27T19:15:15.335Z,65.22
2023-02-27T19:18:04.694Z,65.44
2023-02-27T19:20:54.845Z,65.30
2023-02-27T19:23:44.161Z,65.73
2023-02-27T19:26:34.407Z,65.96
2023-02-27T19:29:23.221Z,65.77
2023-02-27T19:32:13.844Z,65.79
2023-02-27T19:35:02.854Z,66.29
2023-02-27T19:37:58.232Z,66.45
2023-02-27T19:40:47.232Z,66.31
2023-02-27T19:43:38.150Z,66.58
2023-02-27T19:46:30.649Z,66.43
2023-02-27T19:49:20.447Z,66.16
2023-02-27T19:52:10.334Z,66.38
2023-02-27T19:54:59.325Z,66.29
2023-02-27T19:57:48.175Z,66.14
2023-02-27T20:00:37.270Z,66.21
2023-02-27T20:03:26.218Z,65.90
2023-02-27T20:06:20.450Z,65.90
2023-02-27T20:09:11.574Z,65.88
2023-02-27T20:12:01.666Z,65.94
2023-02-27T20:14:50.447Z,66.30
2023-02-27T20:17:41.431Z,66.29
2023-02-27T20:20:32.011Z,66.43
2023-02-27T20:23:21.069Z,66.40
2023-02-27T20:26:40.272Z,66.58
2023-02-27T20:29:29.215Z,66.55
2023-02-27T20:32:18.135Z,66.52
2023-02-27T20:35:07.742Z,66.66
2023-02-27T20:37:56.407Z,66.58
2023-02-27T20:40:45.164Z,66.78
2023-02-27T20:43:34.023Z,66.85
2023-02-27T20:46:26.684Z,67.12
2023-02-27T20:49:15.890Z,67.40
2023-02-27T20:52:04.826Z,67.71
2023-02-27T20:54:55.329Z,67.74
2023-02-27T20:57:44.590Z,67.81
2023-02-27T21:00:33.468Z,67.89
2023-02-27T21:03:22.495Z,68.05
2023-02-27T21:06:13.953Z,68.05
2023-02-27T21:09:06.497Z,68.27
2023-02-27T21:11:55.207Z,68.29
2023-02-27T21:14:44.586Z,68.06
2023-02-27T21:17:33.335Z,68.26
2023-02-27T21:20:22.221Z,68.17
2023-02-27T21:23:10.881Z,68.25
2023-02-27T21:25:59.981Z,68.26
2023-02-27T21:29:01.514Z,68.14
2023-02-27T21:31:54.094Z,67.98
2023-02-27T21:34:45.215Z,68.06
2023-02-27T21:37:34.131Z,68.06
2023-02-27T21:40:22.846Z,67.82
2023-02-27T21:43:12.015Z,67.69
2023-02-27T21:46:08.990Z,67.91
2023-02-27T21:48:57.946Z,67.69
2023-02-27T21:51:47.306Z,67.67
2023-02-27T21:54:36.642Z,67.66
2023-02-27T21:57:25.272Z,67.92
2023-02-27T22:00:14.394Z,68.08
2023-02-27T22:03:03.420Z,67.91
2023-02-27T22:05:52.606Z,68.05
2023-02-27T22:08:41.681Z,67.98
2023-02-27T22:11:31.925Z,67.81
2023-02-27T22:14:20.617Z,67.73
2023-02-27T22:17:10.755Z,67.98
2023-02-27T22:19:59.401Z,68.29
2023-02-27T22:22:48.371Z,68.47
2023-02-27T22:25:37.172Z,68.36
2023-02-27T22:28:25.952Z,68.18
2023-02-27T22:31:24.261Z,68.20
2023-02-27T22:34:20.706Z,68.31
2023-02-27T22:37:09.413Z,68.40
2023-02-27T22:39:58.041Z,68.22
2023-02-27T22:42:48.076Z,68.57
2023-02-27T22:45:36.969Z,68.66
2023-02-27T22:48:25.867Z,68.36
2023-02-27T22:51:15.923Z,68.37
2023-02-27T22:54:06.003Z,68.49
2023-02-27T22:56:58.220Z,68.33
2023-02-27T22:59:49.620Z,68.18
2023-02-27T23:02:41.033Z,67.91
2023-02-27T23:05:29.829Z,67.99
2023-02-27T23:08:20.705Z,67.90
2023-02-27T23:11:14.991Z,68.00
2023-02-27T23:14:04.044Z,68.28
2023-02-27T23:16:53.189Z,68.34
2023-02-27T23:19:42.466Z,68.31
2023-02-27T23:22:33.529Z,68.26
2023-02-27T23:25:23.049Z,68.40
2023-02-27T23:28:12.139Z,68.36
2023-02-27T23:31:02.153Z,68.28
2023-02-27T23:33:50.894Z,68.34
2023-02-27T23:36:40.908Z,68.25
2023-02-27T23:39:29.891Z,68.17
2023-02-27T23:42:37.828Z,68.18
2023-02-27T23:45:26.650Z,68.50
2023-02-27T23:48:16.120Z,68.48
2023-02-27T23:51:07.156Z,68.33
2023-02-27T23:53:56.444Z,68.28
2023-02-27T23:56:46.707Z,68.42
2023-02-27T23:59:36.068Z,68.69
